Matunuck, Rhode Island
Current Conditions -  °F | °C
As of 4:53 AM on Sunday 23 Nov 2014 (Local Time) from KWST Reporting Station
Broken Clouds Broken Clouds  
Wind Chill: 41°   Ceiling: 11000
Heat Index: 46°   Visibility: 10mi
Dew Point: 31°   Wind: 9mph
Humidity: 56%   Direction: 240°WSW
Pressure: 30.15"   Gusts: 20mph
Location:  41.4261°N, 71.5353°W
Report Text: KWST 230953Z AUTO 24008G17KT 10SM BKN110 08/M01 A3015 RMK AO2 SLP210 T00781006
Loading
Personal Weather Stations






























Interactive Weather Map New forecast layout! Learn more

10-Day Weather Forecast

Advertisements
Track Severe Weather on mobile